Bethune, Colorado
Current Conditions -  °F | °C
As of 8:53 AM on Wednesday 22 Oct 2014 (Local Time) from KITR Reporting Station
Overcast Overcast  
Wind Chill: 58°   Ceiling: 11000
Heat Index: 58°   Visibility: 10mi
Dew Point: 45°   Wind: 8mph
Humidity: 62%   Direction: 350°N
Pressure: 30.05"   Gusts: NA
Location:  39.3°N, 102.42°W
Report Text: KITR 221453Z AUTO 35007KT 10SM OVC110 14/07 A3005 RMK AO2 SLP138 T01440072 52021
Loading
Personal Weather Stations






























Interactive Weather Map New forecast layout! Learn more

10-Day Weather Forecast

Advertisements
Track Severe Weather on mobile